Time;durP1;ratioP1;P1;durP2;ratioP2;P2;SDS_P1;SDS_P2;PMS_P1;PMS_P2;Temp;Humidity;BMP_temperature;BMP_pressure;BME280_temperature;BME280_humidity;BME280_pressure;Samples;Min_cycle;Max_cycle;Signal;HPM_P1;HPM_P2
2022/01/10 00:01:07;;;;;;;80.42;34.95;;;;;;;-1.09;67.85;98525.86;1748378;81;21011;-46
2022/01/10 00:03:33;;;;;;;74.45;32.88;;;;;;;-1.11;67.94;98520.75;1747436;81;20988;-45
2022/01/10 00:05:59;;;;;;;81.32;33.60;;;;;;;-1.14;67.86;98530.29;1748177;81;20987;-46
2022/01/10 00:08:25;;;;;;;78.47;34.78;;;;;;;-1.16;68.00;98530.31;1748173;81;21446;-44
2022/01/10 00:10:51;;;;;;;81.92;35.30;;;;;;;-1.16;67.98;98531.60;1748133;82;21446;-47
2022/01/10 00:13:17;;;;;;;76.40;32.67;;;;;;;-1.16;67.98;98534.19;1748035;82;21003;-45
2022/01/10 00:15:44;;;;;;;79.07;33.28;;;;;;;-1.20;68.02;98535.97;1748094;81;20980;-44
2022/01/10 00:18:11;;;;;;;71.05;33.13;;;;;;;-1.18;67.99;98532.92;1748061;82;21627;-43
2022/01/10 00:20:37;;;;;;;71.40;32.25;;;;;;;-1.17;67.94;98535.89;1748121;81;20991;-45
2022/01/10 00:23:03;;;;;;;70.83;32.60;;;;;;;-1.16;67.89;98531.16;1748059;81;20983;-43
2022/01/10 00:25:30;;;;;;;71.33;32.28;;;;;;;-1.14;67.93;98535.00;1748082;81;20972;-43
2022/01/10 00:27:56;;;;;;;70.90;31.30;;;;;;;-1.16;67.89;98544.05;1748329;81;21477;-43
2022/01/10 00:30:25;;;;;;;70.75;32.33;;;;;;;-1.12;67.92;98548.71;1748089;81;20999;-44
2022/01/10 00:32:52;;;;;;;70.83;32.08;;;;;;;-1.13;67.73;98547.00;1748106;82;20972;-47
2022/01/10 00:35:19;;;;;;;65.70;30.62;;;;;;;-1.10;67.83;98553.41;1748121;81;20996;-43
2022/01/10 00:37:46;;;;;;;73.52;30.97;;;;;;;-1.10;67.67;98559.85;1748198;81;21480;-45
2022/01/10 00:40:14;;;;;;;66.55;31.77;;;;;;;-1.13;67.71;98564.22;1748118;81;21039;-44
2022/01/10 00:42:40;;;;;;;67.70;31.40;;;;;;;-1.14;67.61;98574.99;1748009;81;20995;-45
2022/01/10 00:45:13;;;;;;;60.78;29.80;;;;;;;-1.19;67.62;98578.94;1748195;81;21462;-44
2022/01/10 00:47:35;;;;;;;71.82;31.87;;;;;;;-1.18;67.75;98583.23;1750267;81;21039;-46
2022/01/10 00:50:00;;;;;;;75.25;31.77;;;;;;;-1.17;67.81;98584.91;1761535;81;20995;-46
2022/01/10 00:52:26;;;;;;;69.17;32.30;;;;;;;-1.16;67.80;98593.52;1761440;81;21497;-48
2022/01/10 00:54:52;;;;;;;73.40;32.80;;;;;;;-1.13;67.66;98592.60;1761394;81;20990;-46
2022/01/10 00:57:18;;;;;;;70.80;31.33;;;;;;;-1.13;67.55;98586.99;1761536;81;21386;-47
2022/01/10 00:59:44;;;;;;;74.87;30.40;;;;;;;-1.14;67.57;98589.18;1761442;81;20991;-43
2022/01/10 01:02:09;;;;;;;66.25;29.70;;;;;;;-1.14;67.50;98594.34;1761363;80;20987;-44
2022/01/10 01:04:35;;;;;;;78.30;32.00;;;;;;;-1.20;67.62;98596.60;1761433;81;21302;-47
2022/01/10 01:07:01;;;;;;;70.25;31.07;;;;;;;-1.19;67.67;98594.41;1761409;81;21417;-45
2022/01/10 01:09:30;;;;;;;66.67;31.70;;;;;;;-1.20;67.76;98593.15;1761379;81;21039;-48
2022/01/10 01:12:10;;;;;;;;;;;;;;;-1.18;67.71;98598.70;1763849;80;20991;-43
2022/01/10 01:17:12;;;;;;;69.90;29.67;;;;;;;-1.18;67.65;98605.16;1761454;81;21036;-45
2022/01/10 01:25:08;;;;;;;70.62;31.75;;;;;;;-1.21;67.60;98605.66;1761417;80;21010;-44
2022/01/10 01:27:33;;;;;;;64.10;30.80;;;;;;;-1.23;67.66;98606.97;1761663;81;21883;-44
2022/01/10 01:29:59;;;;;;;65.47;30.52;;;;;;;-1.22;67.89;98608.69;1761511;81;20972;-45
2022/01/10 01:32:25;;;;;;;65.17;30.25;;;;;;;-1.19;67.70;98615.05;1761329;81;21010;-45
2022/01/10 01:34:56;;;;;;;68.55;30.10;;;;;;;-1.17;67.72;98617.16;1761401;81;21003;-50
2022/01/10 01:37:19;;;;;;;72.70;31.33;;;;;;;-1.17;67.63;98620.19;1761003;81;21508;-47
2022/01/10 01:39:45;;;;;;;68.52;30.72;;;;;;;-1.16;67.59;98618.88;1761402;80;21034;-46
2022/01/10 01:44:55;;;;;;;66.75;31.00;;;;;;;-1.15;67.59;98622.30;1761417;81;21006;-43
2022/01/10 01:47:21;;;;;;;70.50;31.30;;;;;;;-1.15;67.68;98621.01;1761372;81;21489;-48
2022/01/10 01:49:46;;;;;;;69.17;31.25;;;;;;;-1.12;67.63;98621.41;1748343;80;21019;-45
2022/01/10 01:52:12;;;;;;;70.17;31.27;;;;;;;-1.14;67.61;98630.91;1748087;81;21457;-45
2022/01/10 01:54:38;;;;;;;63.78;29.57;;;;;;;-1.17;67.56;98632.64;1747883;81;21565;-43
2022/01/10 01:57:06;;;;;;;72.65;30.20;;;;;;;-1.14;67.70;98636.91;1748040;81;21030;-46
2022/01/10 01:59:35;;;;;;;68.40;30.27;;;;;;;-1.12;67.55;98642.05;1748125;81;21354;-45
2022/01/10 02:02:01;;;;;;;70.10;30.62;;;;;;;-1.13;67.56;98648.08;1748021;81;21004;-44
2022/01/10 02:04:27;;;;;;;63.48;29.70;;;;;;;-1.15;67.62;98642.94;1748047;81;21509;-46
2022/01/10 02:06:53;;;;;;;67.30;30.30;;;;;;;-1.14;67.58;98650.27;1748022;81;20976;-44
2022/01/10 02:09:18;;;;;;;68.62;30.72;;;;;;;-1.17;67.65;98649.41;1748211;81;20984;-47
2022/01/10 02:11:44;;;;;;;66.28;29.00;;;;;;;-1.18;67.72;98651.59;1747992;82;20987;-43
2022/01/10 02:14:10;;;;;;;65.08;29.20;;;;;;;-1.19;67.67;98656.34;1747983;81;21167;-48
2022/01/10 02:16:42;;;;;;;64.35;28.52;;;;;;;-1.19;67.65;98660.20;1747975;82;20999;-43
2022/01/10 02:19:06;;;;;;;60.12;26.55;;;;;;;-1.17;67.67;98665.34;1747932;81;21038;-43
2022/01/10 02:21:33;;;;;;;68.60;27.93;;;;;;;-1.16;67.52;98667.06;1748077;81;21610;-47
2022/01/10 02:23:58;;;;;;;64.85;28.75;;;;;;;-1.18;67.67;98662.37;1747980;81;21034;-47
2022/01/10 02:26:24;;;;;;;62.45;27.50;;;;;;;-1.19;67.80;98668.39;1748033;81;20965;-47
2022/01/10 02:28:50;;;;;;;64.15;28.17;;;;;;;-1.17;67.85;98670.05;1748006;81;20996;-44
2022/01/10 02:31:16;;;;;;;66.62;28.38;;;;;;;-1.14;67.64;98669.62;1748015;82;21022;-43
2022/01/10 02:33:42;;;;;;;61.10;27.67;;;;;;;-1.14;67.50;98678.65;1748098;81;20968;-44
2022/01/10 02:36:20;;;;;;;61.50;28.62;;;;;;;-1.18;67.55;98685.14;1748059;81;20991;-46
2022/01/10 02:38:57;;;;;;;60.40;28.32;;;;;;;-1.19;67.88;98692.45;1747420;81;21009;-44
2022/01/10 02:41:30;;;;;;;67.47;28.52;;;;;;;-1.15;67.87;98689.38;1746662;77;21047;-44
2022/01/10 02:44:00;;;;;;;59.20;28.10;;;;;;;-1.20;68.11;98693.77;1767018;81;21040;-46
2022/01/10 02:46:26;;;;;;;62.40;29.05;;;;;;;-1.18;67.89;98691.59;1768438;81;21019;-44
2022/01/10 02:48:52;;;;;;;61.88;29.23;;;;;;;-1.21;67.72;98695.50;1768550;81;20996;-43
2022/01/10 02:51:19;;;;;;;59.55;28.77;;;;;;;-1.22;67.96;98696.40;1768692;81;21051;-46
2022/01/10 02:53:45;;;;;;;65.65;29.52;;;;;;;-1.25;67.93;98704.63;1768398;80;20995;-46
2022/01/10 02:56:12;;;;;;;67.70;30.10;;;;;;;-1.25;67.86;98705.47;1768468;80;21452;-43
2022/01/10 02:58:38;;;;;;;63.05;28.23;;;;;;;-1.25;68.11;98714.50;1767907;80;20992;-44
2022/01/10 03:01:05;;;;;;;60.08;28.38;;;;;;;-1.27;67.96;98713.68;1768239;81;20994;-48
2022/01/10 03:03:31;;;;;;;62.58;29.65;;;;;;;-1.26;68.10;98709.36;1768049;81;21000;-45
2022/01/10 03:05:59;;;;;;;62.75;29.55;;;;;;;-1.27;68.15;98716.70;1767888;81;21481;-47
2022/01/10 03:08:26;;;;;;;63.23;28.32;;;;;;;-1.28;67.98;98716.28;1768613;81;20992;-45
2022/01/10 03:10:52;;;;;;;;;;;;;;;-1.29;68.02;98725.76;1771293;81;20964;-46
2022/01/10 03:13:18;;;;;;;61.68;27.42;;;;;;;-1.38;68.29;98724.62;1768807;81;20433;-46
2022/01/10 03:15:44;;;;;;;64.25;28.95;;;;;;;-1.36;68.29;98725.44;1717600;81;20968;-45
2022/01/10 03:18:09;;;;;;;73.17;29.60;;;;;;;-1.39;68.48;98729.34;1761139;81;21107;-45
2022/01/10 03:20:35;;;;;;;60.30;28.77;;;;;;;-1.39;68.40;98735.80;1761228;81;20976;-46
2022/01/10 03:23:02;;;;;;;66.05;29.98;;;;;;;-1.39;68.48;98740.95;1761136;81;20992;-48
2022/01/10 03:25:28;;;;;;;64.22;29.37;;;;;;;-1.39;68.42;98749.53;1761134;81;20968;-44
2022/01/10 03:27:54;;;;;;;63.58;28.77;;;;;;;-1.40;68.48;98747.85;1761260;81;21482;-49
2022/01/10 03:30:19;;;;;;;66.15;30.30;;;;;;;-1.41;68.85;98756.89;1761204;81;21595;-44
2022/01/10 03:32:48;;;;;;;66.60;30.45;;;;;;;-1.40;68.61;98762.45;1761129;81;20961;-44
2022/01/10 03:35:14;;;;;;;67.53;29.42;;;;;;;-1.41;68.62;98770.64;1761126;81;21481;-44
2022/01/10 03:37:40;;;;;;;70.50;32.25;;;;;;;-1.41;68.79;98768.50;1761179;81;20987;-47
2022/01/10 03:40:07;;;;;;;77.67;33.85;;;;;;;-1.43;68.98;98772.39;1761118;81;21003;-46
2022/01/10 03:42:34;;;;;;;72.50;33.75;;;;;;;-1.43;68.78;98776.70;1760956;81;21368;-49
2022/01/10 03:45:02;;;;;;;73.72;34.50;;;;;;;-1.47;69.12;98780.22;1761048;81;21042;-44
2022/01/10 03:47:27;;;;;;;;;;;;;;;-1.46;68.98;98779.32;1763700;81;20996;-45
2022/01/10 03:49:53;;;;;;;82.00;33.08;;;;;;;-1.50;68.87;98779.80;1761008;81;20141;-44
2022/01/10 03:52:19;;;;;;;69.45;30.20;;;;;;;-1.50;69.03;98786.25;1761008;81;20968;-46
2022/01/10 03:54:45;;;;;;;74.65;32.00;;;;;;;-1.53;69.13;98788.02;1760994;81;21000;-49
2022/01/10 03:57:11;;;;;;;71.35;31.20;;;;;;;-1.53;69.45;98795.76;1761017;81;21435;-46
2022/01/10 03:59:37;;;;;;;66.12;30.97;;;;;;;-1.51;69.35;98797.88;1760975;81;21030;-46
2022/01/10 04:02:04;;;;;;;68.22;30.05;;;;;;;-1.53;69.24;98803.05;1761245;81;21030;-46
2022/01/10 04:04:30;;;;;;;60.20;28.87;;;;;;;-1.52;69.32;98805.21;1761278;81;20987;-46
2022/01/10 04:06:56;;;;;;;69.03;31.62;;;;;;;-1.53;69.77;98813.80;1760997;81;20961;-46
2022/01/10 04:09:23;;;;;;;63.15;29.55;;;;;;;-1.53;69.57;98817.23;1760988;81;21026;-45
2022/01/10 04:11:49;;;;;;;66.63;32.77;;;;;;;-1.52;69.76;98818.95;1761323;81;21528;-44
2022/01/10 04:14:15;;;;;;;68.17;29.60;;;;;;;-1.54;69.86;98829.72;1741673;81;20992;-46
2022/01/10 04:16:40;;;;;;;69.70;32.80;;;;;;;-1.54;69.86;98829.72;1761007;81;20977;-44
2022/01/10 04:19:07;;;;;;;70.37;32.38;;;;;;;-1.54;69.99;98836.17;1760969;81;20992;-44
2022/01/10 04:21:33;;;;;;;68.70;32.65;;;;;;;-1.58;70.06;98839.23;1760961;81;21035;-46
2022/01/10 04:23:59;;;;;;;70.92;34.30;;;;;;;-1.63;70.61;98833.72;1760902;81;21006;-49
2022/01/10 04:26:24;;;;;;;68.30;33.18;;;;;;;-1.68;71.06;98849.23;1760935;81;20988;-45
2022/01/10 04:28:50;;;;;;;68.52;32.40;;;;;;;-1.70;71.12;98850.98;1760986;81;20988;-46
2022/01/10 04:31:17;;;;;;;69.95;33.05;;;;;;;-1.70;71.12;98850.98;1760949;81;20988;-44
2022/01/10 04:33:43;;;;;;;71.25;33.20;;;;;;;-1.70;70.99;98863.88;1761248;81;21555;-45
2022/01/10 04:36:09;;;;;;;67.60;32.98;;;;;;;-1.74;71.16;98872.08;1760933;81;21023;-46
2022/01/10 04:38:36;;;;;;;70.42;32.90;;;;;;;-1.78;71.60;98874.29;1760984;81;20995;-47
2022/01/10 04:41:03;;;;;;;70.70;32.73;;;;;;;-1.80;71.80;98876.45;1761018;81;21027;-44
2022/01/10 04:43:29;;;;;;;73.17;34.00;;;;;;;-1.78;71.86;98884.59;1757025;81;21064;-45
2022/01/10 04:45:55;;;;;;;65.30;32.33;;;;;;;-1.80;71.74;98888.92;1756141;82;21043;-47
2022/01/10 04:48:21;;;;;;;74.17;34.88;;;;;;;-1.78;71.89;98890.20;1756103;82;20997;-45
2022/01/10 04:53:32;;;;;;;68.28;32.80;;;;;;;-1.85;72.17;98896.30;1756242;82;21465;-44
2022/01/10 04:55:58;;;;;;;68.40;32.55;;;;;;;-1.85;72.48;98910.02;1756267;81;21465;-44
2022/01/10 04:58:24;;;;;;;70.00;33.80;;;;;;;-1.82;71.99;98903.56;1756225;82;20992;-47
2022/01/10 05:00:55;;;;;;;68.40;33.05;;;;;;;-1.82;71.99;98903.56;1756152;81;20961;-48
2022/01/10 05:03:22;;;;;;;72.20;34.13;;;;;;;-1.80;72.03;98914.70;1756083;81;21027;-43
2022/01/10 05:05:53;;;;;;;68.52;33.10;;;;;;;-1.83;72.21;98913.44;1756288;81;21019;-45
2022/01/10 05:08:20;;;;;;;71.85;33.18;;;;;;;-1.78;72.24;98919.84;1756013;81;20981;-46
2022/01/10 05:10:50;;;;;;;68.22;33.05;;;;;;;-1.78;72.12;98923.70;1756167;82;20964;-49
2022/01/10 05:13:17;;;;;;;73.42;33.28;;;;;;;-1.78;72.28;98928.42;1756232;81;21020;-45
2022/01/10 05:15:45;;;;;;;69.00;33.13;;;;;;;-1.74;71.84;98930.53;1756442;82;21445;-46
2022/01/10 05:18:10;;;;;;;67.82;33.28;;;;;;;-1.76;71.86;98936.14;1737092;82;21350;-46
2022/01/10 05:20:36;;;;;;;74.70;32.70;;;;;;;-1.76;71.82;98941.30;1756152;82;21382;-45
2022/01/10 05:23:02;;;;;;;64.30;32.15;;;;;;;-1.78;71.95;98945.17;1756154;82;20988;-44
2022/01/10 05:25:28;;;;;;;69.37;32.55;;;;;;;-1.77;71.80;98946.86;1756145;82;21472;-47
2022/01/10 05:27:54;;;;;;;69.55;31.87;;;;;;;-1.77;71.83;98957.62;1756173;81;21593;-42
2022/01/10 05:30:20;;;;;;;66.00;30.48;;;;;;;-1.74;71.65;98960.17;1756204;82;21505;-43
2022/01/10 05:32:46;;;;;;;63.63;30.80;;;;;;;-1.73;71.44;98967.02;1756447;81;21004;-45
2022/01/10 05:35:12;;;;;;;73.20;34.03;;;;;;;-1.75;71.23;98972.22;1756122;82;20984;-45
2022/01/10 05:37:38;;;;;;;72.27;34.45;;;;;;;-1.84;71.43;98979.17;1756105;82;20984;-48
2022/01/10 05:40:05;;;;;;;76.25;33.70;;;;;;;-1.85;71.48;98982.64;1756159;81;21020;-45
2022/01/10 05:42:31;;;;;;;75.78;35.70;;;;;;;-1.90;71.47;98983.95;1756064;81;21008;-47
2022/01/10 05:44:56;;;;;;;74.30;34.70;;;;;;;-2.00;71.81;98985.78;1756058;82;21445;-43
2022/01/10 05:47:22;;;;;;;79.22;35.88;;;;;;;-2.01;71.89;98989.66;1756197;81;21490;-47
2022/01/10 05:49:49;;;;;;;77.27;34.23;;;;;;;-2.05;72.11;98994.42;1756167;81;21510;-49
2022/01/10 05:52:15;;;;;;;80.37;34.37;;;;;;;-2.08;72.12;98999.16;1756393;82;21509;-47
2022/01/10 05:54:41;;;;;;;71.55;35.38;;;;;;;-2.07;72.15;99007.73;1756077;81;21023;-45
2022/01/10 05:57:07;;;;;;;75.03;34.03;;;;;;;-2.11;72.09;99017.23;1756094;81;21032;-47
2022/01/10 05:59:33;;;;;;;69.90;35.50;;;;;;;-2.16;72.54;99009.53;1756058;82;20984;-48
2022/01/10 06:01:59;;;;;;;76.47;34.92;;;;;;;-2.21;72.32;99007.42;1756067;82;20989;-47
2022/01/10 06:04:25;;;;;;;76.02;34.60;;;;;;;-2.40;72.64;99019.60;1756202;81;21509;-44
2022/01/10 06:06:51;;;;;;;78.25;37.85;;;;;;;-2.40;72.64;99019.60;1756167;82;21438;-44
2022/01/10 06:09:16;;;;;;;72.10;35.80;;;;;;;-2.42;73.16;99025.20;1756220;82;20984;-51
2022/01/10 06:11:42;;;;;;;71.97;34.50;;;;;;;-2.45;73.15;99026.50;1756083;81;20988;-45
2022/01/10 06:14:09;;;;;;;79.22;36.48;;;;;;;-2.48;73.15;99035.52;1756070;81;21486;-46
2022/01/10 06:16:35;;;;;;;77.00;33.75;;;;;;;-2.53;73.48;99037.27;1756172;81;21001;-45
2022/01/10 06:19:01;;;;;;;80.10;34.80;;;;;;;-2.54;73.63;99045.44;1756091;82;21024;-47
2022/01/10 06:21:27;;;;;;;78.20;36.70;;;;;;;-2.61;73.87;99047.63;1756256;81;21035;-49
2022/01/10 06:23:53;;;;;;;81.63;34.67;;;;;;;-2.68;74.69;99047.67;1756038;81;20988;-44
2022/01/10 06:26:19;;;;;;;74.77;35.17;;;;;;;-2.70;75.38;99057.53;1756052;82;20996;-45
2022/01/10 06:28:45;;;;;;;76.40;35.40;;;;;;;-2.68;75.32;99058.81;1755989;82;20964;-43
2022/01/10 06:31:12;;;;;;;80.30;34.45;;;;;;;-2.67;75.10;99064.81;1756049;81;20984;-46
2022/01/10 06:33:37;;;;;;;76.10;34.08;;;;;;;-2.71;75.73;99071.69;1756282;82;21469;-44
2022/01/10 06:36:04;;;;;;;70.60;33.08;;;;;;;-2.73;75.64;99095.30;1756065;82;20961;-47
2022/01/10 06:38:29;;;;;;;68.45;32.38;;;;;;;-2.67;75.85;99094.00;1756211;81;21023;-46
2022/01/10 06:40:55;;;;;;;73.20;32.83;;;;;;;-2.67;75.67;99112.43;1756073;81;20992;-48
2022/01/10 06:43:21;;;;;;;67.00;30.70;;;;;;;-2.70;75.92;99123.17;1755879;81;21064;-46
2022/01/10 06:45:46;;;;;;;70.08;33.33;;;;;;;-2.68;75.88;99132.62;1756059;81;21027;-45
2022/01/10 06:48:12;;;;;;;67.65;32.60;;;;;;;-2.66;75.79;99129.60;1756061;81;20992;-43
2022/01/10 06:50:38;;;;;;;70.80;31.33;;;;;;;-2.69;75.98;99131.77;1756079;81;20996;-43
2022/01/10 06:53:06;;;;;;;68.75;30.52;;;;;;;-2.66;76.04;99142.47;1756074;82;20988;-44
2022/01/10 06:55:32;;;;;;;75.35;32.17;;;;;;;-2.66;76.08;99149.75;1755921;82;20996;-45
2022/01/10 06:57:58;;;;;;;67.15;29.55;;;;;;;-2.66;76.63;99152.77;1755986;82;20960;-45
2022/01/10 07:00:24;;;;;;;71.60;31.33;;;;;;;-2.62;76.91;99158.32;1756097;82;20981;-45
2022/01/10 07:02:49;;;;;;;68.72;31.35;;;;;;;-2.56;76.69;99166.04;1755965;82;21035;-44
2022/01/10 07:05:15;;;;;;;70.97;29.63;;;;;;;-2.56;76.43;99165.59;1756009;82;21419;-45
2022/01/10 07:07:41;;;;;;;68.83;31.37;;;;;;;-2.52;76.85;99171.15;1756023;82;20984;-44
2022/01/10 07:10:07;;;;;;;74.97;34.08;;;;;;;-2.49;77.19;99172.00;1756120;82;20972;-45
2022/01/10 07:12:33;;;;;;;62.73;28.83;;;;;;;-2.44;77.24;99167.69;1756256;81;21513;-48
2022/01/10 07:14:59;;;;;;;65.40;30.32;;;;;;;-2.33;76.80;99185.22;1756165;81;21004;-48
2022/01/10 07:17:24;;;;;;;70.30;31.48;;;;;;;-2.35;77.39;99197.26;1756337;82;21023;-47
2022/01/10 07:19:50;;;;;;;79.97;33.00;;;;;;;-2.31;77.51;99193.80;1756110;81;21028;-45
2022/01/10 07:22:16;;;;;;;72.65;31.90;;;;;;;-2.30;77.84;99196.81;1756188;82;21028;-43
2022/01/10 07:24:42;;;;;;;73.50;32.48;;;;;;;-2.28;77.89;99211.82;1756261;81;20980;-46
2022/01/10 07:27:07;;;;;;;73.85;33.55;;;;;;;-2.14;77.76;99211.77;1756211;82;21426;-46
2022/01/10 07:29:33;;;;;;;76.80;32.48;;;;;;;-2.14;77.76;99211.77;1756337;82;21494;-43
2022/01/10 07:31:59;;;;;;;82.95;34.55;;;;;;;-2.02;77.59;99225.00;1756247;82;21493;-47
2022/01/10 07:34:25;;;;;;;78.07;31.70;;;;;;;-2.04;77.88;99230.16;1756251;82;20996;-45
2022/01/10 07:36:51;;;;;;;83.00;36.00;;;;;;;-1.96;77.64;99234.85;1756201;81;20969;-45
2022/01/10 07:39:16;;;;;;;81.75;33.33;;;;;;;-1.97;77.68;99240.01;1756199;81;21025;-47
2022/01/10 07:41:42;;;;;;;74.47;30.43;;;;;;;-1.88;77.50;99242.98;1756153;81;20985;-48
2022/01/10 07:44:08;;;;;;;75.97;31.42;;;;;;;-1.86;77.42;99247.69;1759852;81;21024;-46
2022/01/10 07:46:34;;;;;;;74.72;31.17;;;;;;;-1.85;77.66;99261.86;1761091;81;21518;-45
2022/01/10 07:49:00;;;;;;;73.90;31.82;;;;;;;-1.80;77.60;99262.70;1761041;81;21477;-46
2022/01/10 07:51:26;;;;;;;74.00;32.48;;;;;;;-1.75;77.39;99269.09;1761124;81;20965;-46
2022/01/10 07:53:53;;;;;;;72.60;29.95;;;;;;;-1.74;77.38;99276.83;1761274;81;21524;-45
2022/01/10 07:56:19;;;;;;;70.85;31.52;;;;;;;-1.69;77.33;99278.52;1761003;81;20992;-44
2022/01/10 07:58:50;;;;;;;69.67;31.00;;;;;;;-1.66;77.12;99288.38;1760969;81;21022;-46
2022/01/10 08:01:17;;;;;;;69.00;30.05;;;;;;;-1.62;76.91;99291.38;1760833;81;21029;-45
2022/01/10 08:03:42;;;;;;;73.90;30.48;;;;;;;-1.60;76.99;99292.23;1761177;81;21024;-46
2022/01/10 08:06:08;;;;;;;70.70;30.75;;;;;;;-1.58;76.84;99295.65;1760165;81;21059;-45
2022/01/10 08:08:35;;;;;;;66.57;28.62;;;;;;;-1.57;76.76;99307.66;1759820;81;21012;-45
2022/01/10 08:11:01;;;;;;;67.95;29.80;;;;;;;-1.54;76.79;99318.41;1761173;81;20972;-45
2022/01/10 08:13:27;;;;;;;55.10;26.15;;;;;;;-1.52;76.77;99311.52;1760293;81;21070;-44
2022/01/10 08:15:52;;;;;;;53.85;25.88;;;;;;;-1.51;76.41;99308.08;1759702;81;21095;-49
2022/01/10 08:18:18;;;;;;;58.92;27.05;;;;;;;-1.59;76.78;99313.70;1759481;81;20972;-44
2022/01/10 08:20:45;;;;;;;61.13;29.12;;;;;;;-1.70;76.94;99315.05;1760507;81;21008;-47
2022/01/10 08:23:13;;;;;;;66.70;31.83;;;;;;;-1.67;77.23;99318.91;1761093;81;20965;-44
2022/01/10 08:25:39;;;;;;;59.18;28.17;;;;;;;-1.65;77.26;99317.17;1761007;81;21513;-43
2022/01/10 08:28:05;;;;;;;52.70;24.77;;;;;;;-1.61;77.00;99324.02;1761013;81;21484;-47
2022/01/10 08:30:31;;;;;;;53.90;25.52;;;;;;;-1.60;76.81;99324.46;1760973;81;21052;-43
2022/01/10 08:32:57;;;;;;;49.88;24.32;;;;;;;-1.61;77.38;99327.89;1760947;81;21040;-45
2022/01/10 08:35:23;;;;;;;49.77;25.27;;;;;;;-1.53;77.26;99336.02;1760977;81;21027;-43
2022/01/10 08:37:49;;;;;;;54.90;24.52;;;;;;;-1.53;77.53;99336.87;1760920;81;20972;-43
2022/01/10 08:40:16;;;;;;;59.77;28.07;;;;;;;-1.54;77.48;99339.04;1761267;81;21467;-43
2022/01/10 08:42:42;;;;;;;59.83;27.20;;;;;;;-1.47;77.36;99347.61;1760940;81;21489;-47
2022/01/10 08:45:09;;;;;;;58.05;29.27;;;;;;;-1.44;77.13;99350.16;1761027;81;21481;-54
2022/01/10 08:47:36;;;;;;;61.70;28.05;;;;;;;-1.41;76.97;99363.04;1761056;81;21032;-46
2022/01/10 08:50:04;;;;;;;;;;;;;;;-1.37;77.12;99367.30;1763648;81;21550;-45
2022/01/10 08:52:29;;;;;;;;;;;;;;;-1.37;77.36;99374.60;1763550;81;20113;-44
2022/01/10 08:54:55;;;;;;;49.65;23.85;;;;;;;-1.31;77.07;99380.19;1761011;81;20098;-44
2022/01/10 08:57:21;;;;;;;47.50;23.85;;;;;;;-1.31;77.05;99387.93;1760940;81;20968;-47
2022/01/10 08:59:47;;;;;;;47.15;23.77;;;;;;;-1.25;76.73;99391.75;1760936;81;20996;-45
2022/01/10 09:02:13;;;;;;;46.00;24.12;;;;;;;-1.25;77.00;99396.06;1760935;81;20995;-45
2022/01/10 09:04:40;;;;;;;47.48;23.35;;;;;;;-1.22;76.86;99403.77;1761237;81;20957;-42
2022/01/10 09:07:08;;;;;;;45.33;22.00;;;;;;;-1.24;77.02;99400.34;1761087;81;21008;-46
2022/01/10 09:09:35;;;;;;;47.53;23.75;;;;;;;-1.17;76.97;99408.03;1760935;81;21024;-45
2022/01/10 09:12:02;;;;;;;50.60;24.23;;;;;;;-1.22;77.17;99407.23;1761047;81;21019;-45
2022/01/10 09:14:29;;;;;;;52.93;25.37;;;;;;;-1.19;77.07;99410.21;1760930;81;20996;-45
2022/01/10 09:16:55;;;;;;;51.05;27.17;;;;;;;-1.26;77.39;99413.25;1761084;81;20992;-46
2022/01/10 09:19:21;;;;;;;63.58;29.57;;;;;;;-1.22;77.74;99416.26;1760944;81;21634;-48
2022/01/10 09:21:49;;;;;;;60.90;29.48;;;;;;;-1.13;77.59;99419.64;1761089;81;21027;-46
2022/01/10 09:24:15;;;;;;;64.77;31.55;;;;;;;-1.06;77.61;99419.58;1760856;81;21023;-47
2022/01/10 09:26:41;;;;;;;65.47;30.12;;;;;;;-1.06;77.18;99419.58;1760942;81;20992;-45
2022/01/10 09:29:07;;;;;;;56.25;27.85;;;;;;;-1.04;77.63;99428.61;1760917;81;20977;-44
2022/01/10 09:31:33;;;;;;;54.40;26.20;;;;;;;-0.97;77.34;99430.29;1761277;81;20973;-44
2022/01/10 09:34:00;;;;;;;81.90;33.45;;;;;;;-0.90;76.83;99434.99;1760900;81;21824;-43
2022/01/10 09:36:28;;;;;;;69.75;30.57;;;;;;;-0.95;76.63;99437.59;1760859;81;21039;-42
2022/01/10 09:38:57;;;;;;;70.28;31.33;;;;;;;-0.92;76.69;99436.28;1761257;81;20997;-44
2022/01/10 09:41:24;;;;;;;50.60;25.05;;;;;;;-0.90;76.62;99441.00;1760931;81;21031;-45
2022/01/10 09:43:59;;;;;;;66.25;28.12;;;;;;;-0.88;76.59;99443.14;1758831;81;21005;-45
2022/01/10 09:46:25;;;;;;;64.53;29.60;;;;;;;-0.86;76.60;99443.13;1755759;82;21061;-44
2022/01/10 09:48:53;;;;;;;65.20;29.65;;;;;;;-0.86;77.10;99456.04;1756081;81;21016;-44
2022/01/10 09:51:22;;;;;;;61.13;28.75;;;;;;;-0.84;76.92;99455.59;1756202;81;20992;-47
2022/01/10 09:53:49;;;;;;;62.80;30.17;;;;;;;-0.82;76.86;99458.61;1756094;81;21048;-45
2022/01/10 09:56:15;;;;;;;57.80;30.32;;;;;;;-0.86;76.91;99462.05;1756299;82;21036;-44
2022/01/10 09:58:41;;;;;;;60.17;32.40;;;;;;;-0.83;76.98;99463.34;1756170;82;21016;-44
2022/01/10 10:01:07;;;;;;;50.33;28.05;;;;;;;-0.77;76.93;99471.47;1756027;82;21012;-46
2022/01/10 10:03:33;;;;;;;47.13;25.85;;;;;;;-0.77;77.13;99487.81;1756035;82;21000;-43
2022/01/10 10:05:59;;;;;;;47.20;23.50;;;;;;;-0.76;77.14;99493.86;1756070;82;20996;-44
2022/01/10 10:08:27;;;;;;;42.27;21.95;;;;;;;-0.73;76.55;99491.68;1755688;81;21055;-42
2022/01/10 10:10:55;;;;;;;40.90;22.58;;;;;;;-0.72;76.55;99493.41;1754617;81;21055;-45
2022/01/10 10:13:22;;;;;;;38.92;21.60;;;;;;;-0.72;76.62;99499.42;1754758;82;21098;-46
2022/01/10 10:15:48;;;;;;;36.58;21.30;;;;;;;-0.70;76.64;99513.63;1754895;82;21018;-47
2022/01/10 10:18:16;;;;;;;44.33;22.42;;;;;;;-0.66;76.43;99519.19;1755179;81;21099;-44
2022/01/10 10:20:44;;;;;;;40.55;22.82;;;;;;;-0.67;76.43;99512.32;1756018;81;21027;-46
2022/01/10 10:23:14;;;;;;;43.68;23.25;;;;;;;-0.66;76.23;99523.91;1756018;82;20988;-42
2022/01/10 10:25:53;;;;;;;44.58;24.18;;;;;;;-0.75;76.39;99537.31;1755983;81;20992;-44
2022/01/10 10:28:19;;;;;;;40.60;22.58;;;;;;;-0.77;76.74;99540.75;1755999;82;20997;-44
2022/01/10 10:30:45;;;;;;;43.08;23.38;;;;;;;-0.75;76.75;99545.06;1756070;81;21489;-45
2022/01/10 10:33:18;;;;;;;42.93;23.27;;;;;;;-0.78;77.19;99544.66;1755972;82;21001;-43
2022/01/10 10:35:55;;;;;;;48.83;25.05;;;;;;;-0.71;77.06;99542.47;1756030;81;20997;-42
2022/01/10 10:38:21;;;;;;;45.33;24.92;;;;;;;-0.71;76.99;99549.34;1756140;82;21040;-46
2022/01/10 10:40:46;;;;;;;43.02;24.18;;;;;;;-0.70;77.05;99549.34;1755982;81;20977;-44
2022/01/10 10:43:13;;;;;;;48.08;25.25;;;;;;;-0.70;76.95;99551.07;1755980;81;21521;-43
2022/01/10 10:45:39;;;;;;;46.30;24.47;;;;;;;-0.74;77.11;99558.42;1756061;81;21864;-47
2022/01/10 10:48:08;;;;;;;44.50;24.18;;;;;;;-0.77;77.55;99561.85;1756069;81;20976;-44
2022/01/10 10:50:41;;;;;;;48.00;24.55;;;;;;;-0.78;77.77;99564.88;1756003;82;20988;-43
2022/01/10 10:53:10;;;;;;;45.88;24.90;;;;;;;-0.70;77.72;99573.02;1755620;81;20988;-45
2022/01/10 10:55:39;;;;;;;57.80;28.07;;;;;;;-0.68;77.94;99575.16;1755954;81;21051;-47
2022/01/10 10:58:07;;;;;;;51.00;27.77;;;;;;;-0.68;78.04;99573.87;1756089;82;20996;-45
2022/01/10 11:00:35;;;;;;;58.40;28.70;;;;;;;-0.65;78.26;99568.70;1755980;81;20988;-48
2022/01/10 11:03:02;;;;;;;53.65;26.57;;;;;;;-0.63;78.10;99574.70;1755892;82;21453;-46
2022/01/10 11:05:29;;;;;;;49.63;25.62;;;;;;;-0.61;77.77;99579.42;1755740;82;21580;-50
2022/01/10 11:07:55;;;;;;;56.83;28.95;;;;;;;-0.57;77.73;99577.25;1756079;81;20969;-45
2022/01/10 11:10:24;;;;;;;51.65;27.75;;;;;;;-0.54;77.67;99583.70;1755831;81;21000;-43
2022/01/10 11:12:55;;;;;;;51.53;25.43;;;;;;;-0.55;78.15;99591.00;1754737;81;21228;-45
2022/01/10 11:15:24;;;;;;;44.58;24.18;;;;;;;-0.52;77.70;99592.30;1754714;81;21353;-45
2022/01/10 11:17:52;;;;;;;54.15;26.73;;;;;;;-0.56;77.39;99590.59;1755972;81;21851;-43
2022/01/10 11:20:22;;;;;;;53.30;26.50;;;;;;;-0.51;77.38;99594.44;1755232;81;21059;-43
2022/01/10 11:22:54;;;;;;;58.65;30.85;;;;;;;-0.49;77.51;99598.74;1755289;81;21473;-43
2022/01/10 11:25:40;;;;;;;50.55;25.92;;;;;;;-0.53;77.54;99597.02;1754808;81;21096;-42
2022/01/10 11:28:25;;;;;;;52.30;25.88;;;;;;;-0.44;77.32;99598.29;1754813;81;21569;-47
2022/01/10 11:31:04;;;;;;;50.48;26.10;;;;;;;-0.45;77.56;99599.14;1755899;82;21025;-45